Terminal Aerodrome Forecast
Issued by NWS Bismarck, ND

Home | Current Version | Previous Version | Graphics & Text | Print | Product List | Glossary On
Versions: 1 2 3 4 5 6 7 8 9 10 11 12 13
371
FTUS43 KBIS 212323
TAFISN
TAF
KISN 212323Z 2200/2224 20012KT P6SM SKC
     FM220200 17007KT P6SM SKC
     FM221000 20005KT P6SM SKC
     FM221700 24005KT P6SM SKC
     FM222200 28009KT P6SM SKC=

USA.gov is the U.S. government's official web portal to all federal, state and local government web resources and services.